| time (UTC) | temp F | wind direction | speed MPH | gust MPH | rain 1hr in | rain 24hr in | rain mn in | humidity % | barometer mb |
| 20260504204557 | 85 | 122 | 3.0 | 5.0 | 0.00 | 0.00 | 0.00 | 24 | 1002.1 |
| 20260504203056 | 85 | 88 | 1.0 | 4.0 | 0.00 | 0.00 | 0.00 | 26 | 1002.3 |
| 20260504201542 | 82 | 94 | 2.0 | 6.0 | 0.00 | 0.00 | 0.00 | 25 | 1002.6 |
| 20260504200041 | 84 | 108 | 3.0 | 6.0 | 0.00 | 0.00 | 0.00 | 26 | 1002.9 |
| 20260504194547 | 83 | 66 | 3.0 | 6.0 | 0.00 | 0.00 | 0.00 | 27 | 1003.1 |
| 20260504193044 | 84 | 135 | 2.0 | 6.0 | 0.00 | 0.00 | 0.00 | 28 | 1003.3 |
| 20260504191542 | 83 | 76 | 2.0 | 5.0 | 0.00 | 0.00 | 0.00 | 30 | 1003.5 |
| 20260504190042 | 82 | 39 | 2.0 | 5.0 | 0.00 | 0.00 | 0.00 | 30 | 1003.8 |
| 20260504184541 | 82 | 120 | 3.0 | 6.0 | 0.00 | 0.00 | 0.00 | 28 | 1004.0 |
| 20260504183041 | 82 | 347 | 5.0 | 7.0 | 0.00 | 0.00 | 0.00 | 28 | 1004.0 |
| 20260504181545 | 82 | 94 | 3.0 | 10.0 | 0.00 | 0.00 | 0.00 | 31 | 1004.1 |
| 20260504180044 | 81 | 46 | 5.0 | 9.0 | 0.00 | 0.00 | 0.00 | 29 | 1004.2 |
| 20260504174543 | 80 | 65 | 2.0 | 5.0 | 0.00 | 0.00 | 0.00 | 34 | 1004.3 |
| 20260504173049 | 79 | 25 | 2.0 | 5.0 | 0.00 | 0.00 | 0.00 | 37 | 1004.5 |
| 20260504171542 | 78 | 60 | 1.0 | 6.0 | 0.00 | 0.00 | 0.00 | 38 | 1004.4 |
| 20260504081541 | 58 | 209 | 5.0 | 11.0 | 0.00 | 0.00 | 0.00 | 46 | 1004.2 |
| 20260504044542 | 57 | 0 | 0.0 | 1.0 | 0.00 | 0.00 | 0.00 | 63 | 1006.1 |
| 20260504043043 | 59 | 0 | 0.0 | 1.0 | 0.00 | 0.00 | 0.00 | 59 | 1006.2 |
| 20260504041544 | 62 | 0 | 0.0 | 1.0 | 0.00 | 0.00 | 0.00 | 52 | 1006.3 |
| 20260504040049 | 65 | 335 | 0.0 | 1.0 | 0.00 | 0.00 | 0.00 | 42 | 1006.4 |
| 20260504034552 | 66 | 0 | 0.0 | 0.0 | 0.00 | 0.00 | 0.00 | 36 | 1006.5 |
| 20260504033042 | 68 | 0 | 0.0 | 1.0 | 0.00 | 0.00 | 0.00 | 34 | 1006.5 |
| 20260504031543 | 69 | 0 | 0.0 | 2.0 | 0.00 | 0.00 | 0.00 | 36 | 1006.6 |
| 20260504030042 | 71 | 143 | 0.0 | 1.0 | 0.00 | 0.00 | 0.00 | 31 | 1006.5 |
| 20260504024551 | 72 | 204 | 0.0 | 3.0 | 0.00 | 0.00 | 0.00 | 28 | 1006.5 |
| 20260504023045 | 71 | 0 | 0.0 | 5.0 | 0.00 | 0.00 | 0.00 | 29 | 1006.4 |
| 20260504021546 | 69 | 164 | 0.0 | 3.0 | 0.00 | 0.00 | 0.00 | 33 | 1006.4 |
| 20260504020044 | 68 | 0 | 0.0 | 0.0 | 0.00 | 0.00 | 0.00 | 33 | 1005.8 |
| 20260504014542 | 71 | 0 | 0.0 | 2.0 | 0.00 | 0.00 | 0.00 | 34 | 1005.6 |
| 20260504013055 | 73 | 0 | 0.0 | 0.0 | 0.00 | 0.00 | 0.00 | 27 | 1005.5 |
| 20260504011545 | 76 | 0 | 0.0 | 1.0 | 0.00 | 0.00 | 0.00 | 23 | 1005.5 |
| 20260504010045 | 78 | 174 | 1.0 | 6.0 | 0.00 | 0.00 | 0.00 | 21 | 1005.6 |
| 20260504004543 | 80 | 213 | 2.0 | 7.0 | 0.00 | 0.00 | 0.00 | 19 | 1005.7 |
| 20260504003041 | 80 | 153 | 2.0 | 8.0 | 0.00 | 0.00 | 0.00 | 19 | 1005.9 |
| 20260504001543 | 81 | 171 | 3.0 | 13.0 | 0.00 | 0.00 | 0.00 | 17 | 1005.9 |
| 20260504000048 | 83 | 136 | 5.0 | 13.0 | 0.00 | 0.00 | 0.00 | 17 | 1006.0 |
| 20260503234545 | 84 | 219 | 7.0 | 16.0 | 0.00 | 0.00 | 0.00 | 16 | 1006.1 |
| 20260503233045 | 84 | 186 | 6.0 | 12.0 | 0.00 | 0.00 | 0.00 | 17 | 1006.2 |
| 20260503231542 | 84 | 200 | 8.0 | 16.0 | 0.00 | 0.00 | 0.00 | 17 | 1006.4 |
| 20260503230042 | 83 | 164 | 7.0 | 15.0 | 0.00 | 0.00 | 0.00 | 18 | 1006.5 |
| 20260503224555 | 83 | 191 | 8.0 | 16.0 | 0.00 | 0.00 | 0.00 | 16 | 1006.5 |
| 20260503223045 | 84 | 176 | 8.0 | 14.0 | 0.00 | 0.00 | 0.00 | 15 | 1006.8 |
| 20260503221557 | 84 | 156 | 5.0 | 12.0 | 0.00 | 0.00 | 0.00 | 14 | 1007.0 |
| 20260503220044 | 85 | 165 | 6.0 | 13.0 | 0.00 | 0.00 | 0.00 | 14 | 1007.3 |
| 20260503214545 | 86 | 231 | 5.0 | 13.0 | 0.00 | 0.00 | 0.00 | 16 | 1007.5 |
| 20260503213045 | 86 | 250 | 8.0 | 16.0 | 0.00 | 0.00 | 0.00 | 16 | 1007.7 |
| 20260503211549 | 86 | 227 | 6.0 | 15.0 | 0.00 | 0.00 | 0.00 | 16 | 1008.0 |
| 20260503210044 | 86 | 231 | 5.0 | 13.0 | 0.00 | 0.00 | 0.00 | 17 | 1008.2 |